sensor_id;sensor_type;location;lat;lon;timestamp;P1;durP1;ratioP1;P2;durP2;ratioP2
20629;SDS011;17386;43.846;25.950;2022-08-23T00:01:41;9.80;;;4.40;;
20629;SDS011;17386;43.846;25.950;2022-08-23T00:04:11;8.48;;;4.10;;
20629;SDS011;17386;43.846;25.950;2022-08-23T00:06:43;9.85;;;4.50;;
20629;SDS011;17386;43.846;25.950;2022-08-23T00:09:09;9.50;;;4.63;;
20629;SDS011;17386;43.846;25.950;2022-08-23T00:11:43;10.30;;;4.07;;
20629;SDS011;17386;43.846;25.950;2022-08-23T00:14:19;7.70;;;4.10;;
20629;SDS011;17386;43.846;25.950;2022-08-23T00:16:51;10.15;;;4.65;;
20629;SDS011;17386;43.846;25.950;2022-08-23T00:19:17;12.82;;;4.68;;
20629;SDS011;17386;43.846;25.950;2022-08-23T00:21:44;16.75;;;4.82;;
20629;SDS011;17386;43.846;25.950;2022-08-23T00:24:11;10.13;;;4.57;;
20629;SDS011;17386;43.846;25.950;2022-08-23T00:29:36;10.80;;;4.10;;
20629;SDS011;17386;43.846;25.950;2022-08-23T00:32:06;9.18;;;3.85;;
20629;SDS011;17386;43.846;25.950;2022-08-23T00:34:33;8.32;;;4.13;;
20629;SDS011;17386;43.846;25.950;2022-08-23T00:36:59;11.50;;;4.70;;
20629;SDS011;17386;43.846;25.950;2022-08-23T00:39:25;7.55;;;4.32;;
20629;SDS011;17386;43.846;25.950;2022-08-23T00:41:50;8.23;;;3.90;;
20629;SDS011;17386;43.846;25.950;2022-08-23T00:44:37;8.98;;;3.92;;
20629;SDS011;17386;43.846;25.950;2022-08-23T00:47:20;10.15;;;4.20;;
20629;SDS011;17386;43.846;25.950;2022-08-23T00:53:08;7.63;;;4.00;;
20629;SDS011;17386;43.846;25.950;2022-08-23T00:55:40;7.88;;;3.75;;
20629;SDS011;17386;43.846;25.950;2022-08-23T00:58:08;10.95;;;3.95;;
20629;SDS011;17386;43.846;25.950;2022-08-23T01:00:34;9.90;;;4.78;;
20629;SDS011;17386;43.846;25.950;2022-08-23T01:03:00;8.00;;;3.75;;
20629;SDS011;17386;43.846;25.950;2022-08-23T01:05:33;8.65;;;3.97;;
20629;SDS011;17386;43.846;25.950;2022-08-23T01:08:13;11.98;;;4.32;;
20629;SDS011;17386;43.846;25.950;2022-08-23T01:10:41;11.38;;;3.63;;
20629;SDS011;17386;43.846;25.950;2022-08-23T01:13:22;10.30;;;3.70;;
20629;SDS011;17386;43.846;25.950;2022-08-23T01:16:22;8.07;;;3.92;;
20629;SDS011;17386;43.846;25.950;2022-08-23T01:18:53;12.63;;;4.22;;
20629;SDS011;17386;43.846;25.950;2022-08-23T01:21:24;9.45;;;4.20;;
20629;SDS011;17386;43.846;25.950;2022-08-23T01:23:57;9.25;;;3.55;;
20629;SDS011;17386;43.846;25.950;2022-08-23T01:26:27;9.15;;;4.25;;
20629;SDS011;17386;43.846;25.950;2022-08-23T01:28:59;8.52;;;3.65;;
20629;SDS011;17386;43.846;25.950;2022-08-23T01:31:26;10.27;;;3.65;;
20629;SDS011;17386;43.846;25.950;2022-08-23T01:33:54;10.95;;;3.80;;
20629;SDS011;17386;43.846;25.950;2022-08-23T01:36:22;10.75;;;4.05;;
20629;SDS011;17386;43.846;25.950;2022-08-23T01:38:48;11.60;;;4.32;;
20629;SDS011;17386;43.846;25.950;2022-08-23T01:41:14;7.70;;;3.95;;
20629;SDS011;17386;43.846;25.950;2022-08-23T01:43:40;13.23;;;4.60;;
20629;SDS011;17386;43.846;25.950;2022-08-23T01:46:09;10.40;;;4.10;;
20629;SDS011;17386;43.846;25.950;2022-08-23T01:48:42;7.63;;;3.95;;
20629;SDS011;17386;43.846;25.950;2022-08-23T01:51:09;10.30;;;3.63;;
20629;SDS011;17386;43.846;25.950;2022-08-23T01:53:35;12.23;;;5.07;;
20629;SDS011;17386;43.846;25.950;2022-08-23T01:56:00;9.30;;;3.92;;
20629;SDS011;17386;43.846;25.950;2022-08-23T01:58:26;9.35;;;4.20;;
20629;SDS011;17386;43.846;25.950;2022-08-23T02:00:54;8.68;;;3.78;;
20629;SDS011;17386;43.846;25.950;2022-08-23T02:03:19;10.40;;;3.83;;
20629;SDS011;17386;43.846;25.950;2022-08-23T02:05:46;7.45;;;4.25;;
20629;SDS011;17386;43.846;25.950;2022-08-23T02:08:11;7.43;;;4.20;;
20629;SDS011;17386;43.846;25.950;2022-08-23T02:10:56;7.47;;;4.18;;
20629;SDS011;17386;43.846;25.950;2022-08-23T02:13:21;12.65;;;4.50;;
20629;SDS011;17386;43.846;25.950;2022-08-23T02:15:47;9.05;;;4.00;;
20629;SDS011;17386;43.846;25.950;2022-08-23T02:18:15;9.25;;;4.03;;
20629;SDS011;17386;43.846;25.950;2022-08-23T02:20:45;8.85;;;3.90;;
20629;SDS011;17386;43.846;25.950;2022-08-23T02:23:13;11.60;;;4.32;;
20629;SDS011;17386;43.846;25.950;2022-08-23T02:25:38;10.73;;;4.15;;
20629;SDS011;17386;43.846;25.950;2022-08-23T02:28:04;9.52;;;3.95;;
20629;SDS011;17386;43.846;25.950;2022-08-23T02:30:30;7.80;;;4.10;;
20629;SDS011;17386;43.846;25.950;2022-08-23T02:32:56;12.63;;;4.72;;
20629;SDS011;17386;43.846;25.950;2022-08-23T02:35:21;7.00;;;4.07;;
20629;SDS011;17386;43.846;25.950;2022-08-23T02:37:48;9.35;;;4.47;;
20629;SDS011;17386;43.846;25.950;2022-08-23T02:40:14;9.13;;;4.25;;
20629;SDS011;17386;43.846;25.950;2022-08-23T02:42:39;8.52;;;3.63;;
20629;SDS011;17386;43.846;25.950;2022-08-23T02:45:06;8.88;;;4.05;;
20629;SDS011;17386;43.846;25.950;2022-08-23T02:47:32;8.95;;;3.67;;
20629;SDS011;17386;43.846;25.950;2022-08-23T02:50:00;8.57;;;4.22;;
20629;SDS011;17386;43.846;25.950;2022-08-23T02:52:27;8.00;;;3.72;;
20629;SDS011;17386;43.846;25.950;2022-08-23T02:54:53;9.65;;;3.42;;
20629;SDS011;17386;43.846;25.950;2022-08-23T02:57:18;6.68;;;3.67;;
20629;SDS011;17386;43.846;25.950;2022-08-23T02:59:44;11.45;;;4.28;;
20629;SDS011;17386;43.846;25.950;2022-08-23T03:02:09;11.85;;;5.07;;
20629;SDS011;17386;43.846;25.950;2022-08-23T03:04:35;7.55;;;3.80;;
20629;SDS011;17386;43.846;25.950;2022-08-23T03:07:00;9.50;;;3.55;;
20629;SDS011;17386;43.846;25.950;2022-08-23T03:09:25;9.60;;;4.10;;
20629;SDS011;17386;43.846;25.950;2022-08-23T03:11:51;8.88;;;4.13;;
20629;SDS011;17386;43.846;25.950;2022-08-23T03:14:16;7.28;;;4.15;;
20629;SDS011;17386;43.846;25.950;2022-08-23T03:16:42;9.55;;;3.60;;
20629;SDS011;17386;43.846;25.950;2022-08-23T03:19:08;11.48;;;4.13;;
20629;SDS011;17386;43.846;25.950;2022-08-23T03:21:33;11.38;;;4.35;;
20629;SDS011;17386;43.846;25.950;2022-08-23T03:23:59;10.95;;;4.43;;
20629;SDS011;17386;43.846;25.950;2022-08-23T03:26:25;8.95;;;3.90;;
20629;SDS011;17386;43.846;25.950;2022-08-23T03:28:50;9.02;;;4.03;;
20629;SDS011;17386;43.846;25.950;2022-08-23T03:31:16;14.23;;;4.78;;
20629;SDS011;17386;43.846;25.950;2022-08-23T03:33:41;10.45;;;4.32;;
20629;SDS011;17386;43.846;25.950;2022-08-23T03:36:08;9.15;;;4.18;;
20629;SDS011;17386;43.846;25.950;2022-08-23T03:38:34;9.80;;;3.50;;
20629;SDS011;17386;43.846;25.950;2022-08-23T03:41:00;9.93;;;4.45;;
20629;SDS011;17386;43.846;25.950;2022-08-23T03:43:26;12.15;;;4.10;;
20629;SDS011;17386;43.846;25.950;2022-08-23T03:45:52;14.15;;;5.03;;
20629;SDS011;17386;43.846;25.950;2022-08-23T03:48:17;11.65;;;4.70;;
20629;SDS011;17386;43.846;25.950;2022-08-23T03:50:43;11.38;;;4.65;;
20629;SDS011;17386;43.846;25.950;2022-08-23T03:53:09;10.57;;;4.10;;
20629;SDS011;17386;43.846;25.950;2022-08-23T03:55:35;9.07;;;4.53;;
20629;SDS011;17386;43.846;25.950;2022-08-23T03:58:00;8.60;;;4.47;;
20629;SDS011;17386;43.846;25.950;2022-08-23T04:00:25;7.50;;;4.25;;
20629;SDS011;17386;43.846;25.950;2022-08-23T04:02:51;9.73;;;5.00;;
20629;SDS011;17386;43.846;25.950;2022-08-23T04:05:17;10.43;;;5.18;;
20629;SDS011;17386;43.846;25.950;2022-08-23T04:07:42;11.23;;;5.20;;
20629;SDS011;17386;43.846;25.950;2022-08-23T04:10:08;15.60;;;6.07;;
20629;SDS011;17386;43.846;25.950;2022-08-23T04:12:37;16.52;;;6.03;;
20629;SDS011;17386;43.846;25.950;2022-08-23T04:15:03;11.63;;;5.68;;
20629;SDS011;17386;43.846;25.950;2022-08-23T04:17:29;12.57;;;5.22;;
20629;SDS011;17386;43.846;25.950;2022-08-23T04:19:55;12.80;;;5.43;;
20629;SDS011;17386;43.846;25.950;2022-08-23T04:22:20;10.57;;;5.15;;
20629;SDS011;17386;43.846;25.950;2022-08-23T04:24:46;11.75;;;5.97;;
20629;SDS011;17386;43.846;25.950;2022-08-23T04:27:12;11.60;;;5.35;;
20629;SDS011;17386;43.846;25.950;2022-08-23T04:29:38;15.45;;;6.90;;
20629;SDS011;17386;43.846;25.950;2022-08-23T04:32:05;14.10;;;6.50;;
20629;SDS011;17386;43.846;25.950;2022-08-23T04:34:32;14.57;;;6.15;;
20629;SDS011;17386;43.846;25.950;2022-08-23T04:36:58;10.30;;;5.78;;
20629;SDS011;17386;43.846;25.950;2022-08-23T04:39:24;16.35;;;7.28;;
20629;SDS011;17386;43.846;25.950;2022-08-23T04:41:50;17.17;;;6.30;;
20629;SDS011;17386;43.846;25.950;2022-08-23T04:44:34;11.63;;;5.65;;
20629;SDS011;17386;43.846;25.950;2022-08-23T04:47:00;12.80;;;5.68;;
20629;SDS011;17386;43.846;25.950;2022-08-23T04:49:26;13.68;;;5.90;;
20629;SDS011;17386;43.846;25.950;2022-08-23T04:51:52;15.40;;;5.47;;
20629;SDS011;17386;43.846;25.950;2022-08-23T04:54:18;11.32;;;5.53;;
20629;SDS011;17386;43.846;25.950;2022-08-23T04:56:43;11.70;;;6.13;;
20629;SDS011;17386;43.846;25.950;2022-08-23T04:59:10;13.90;;;6.43;;
20629;SDS011;17386;43.846;25.950;2022-08-23T05:01:36;12.48;;;6.13;;
20629;SDS011;17386;43.846;25.950;2022-08-23T05:04:01;12.75;;;6.55;;
20629;SDS011;17386;43.846;25.950;2022-08-23T05:06:28;10.32;;;6.13;;
20629;SDS011;17386;43.846;25.950;2022-08-23T05:08:54;19.08;;;6.32;;
20629;SDS011;17386;43.846;25.950;2022-08-23T05:11:19;16.73;;;6.85;;
20629;SDS011;17386;43.846;25.950;2022-08-23T05:13:45;14.65;;;6.25;;
20629;SDS011;17386;43.846;25.950;2022-08-23T05:16:11;13.57;;;7.05;;
20629;SDS011;17386;43.846;25.950;2022-08-23T05:18:36;15.30;;;6.90;;
20629;SDS011;17386;43.846;25.950;2022-08-23T05:21:02;13.15;;;6.55;;
20629;SDS011;17386;43.846;25.950;2022-08-23T05:23:28;15.48;;;7.10;;
20629;SDS011;17386;43.846;25.950;2022-08-23T05:25:54;15.35;;;7.43;;
20629;SDS011;17386;43.846;25.950;2022-08-23T05:28:25;12.20;;;6.57;;
20629;SDS011;17386;43.846;25.950;2022-08-23T05:30:54;16.27;;;6.63;;
20629;SDS011;17386;43.846;25.950;2022-08-23T05:33:24;12.23;;;7.07;;
20629;SDS011;17386;43.846;25.950;2022-08-23T05:35:52;15.63;;;7.07;;
20629;SDS011;17386;43.846;25.950;2022-08-23T05:38:18;17.58;;;7.45;;
20629;SDS011;17386;43.846;25.950;2022-08-23T05:40:50;20.77;;;7.35;;
20629;SDS011;17386;43.846;25.950;2022-08-23T05:43:18;16.33;;;8.10;;
20629;SDS011;17386;43.846;25.950;2022-08-23T05:45:45;20.40;;;12.73;;
20629;SDS011;17386;43.846;25.950;2022-08-23T05:48:12;15.57;;;8.43;;
20629;SDS011;17386;43.846;25.950;2022-08-23T05:50:43;13.60;;;7.65;;
20629;SDS011;17386;43.846;25.950;2022-08-23T05:53:09;18.38;;;9.98;;
20629;SDS011;17386;43.846;25.950;2022-08-23T05:55:35;17.95;;;7.25;;
20629;SDS011;17386;43.846;25.950;2022-08-23T06:00:29;13.80;;;6.55;;
20629;SDS011;17386;43.846;25.950;2022-08-23T06:02:54;14.20;;;6.88;;
20629;SDS011;17386;43.846;25.950;2022-08-23T06:05:21;18.25;;;7.57;;
20629;SDS011;17386;43.846;25.950;2022-08-23T06:07:46;14.25;;;7.47;;
20629;SDS011;17386;43.846;25.950;2022-08-23T06:10:13;17.10;;;7.05;;
20629;SDS011;17386;43.846;25.950;2022-08-23T06:12:38;21.17;;;6.82;;
20629;SDS011;17386;43.846;25.950;2022-08-23T06:15:04;14.18;;;7.55;;
20629;SDS011;17386;43.846;25.950;2022-08-23T06:17:29;141.95;;;21.25;;
20629;SDS011;17386;43.846;25.950;2022-08-23T06:19:55;23.45;;;8.70;;
20629;SDS011;17386;43.846;25.950;2022-08-23T06:22:21;21.42;;;8.63;;
20629;SDS011;17386;43.846;25.950;2022-08-23T06:24:47;27.15;;;11.43;;
20629;SDS011;17386;43.846;25.950;2022-08-23T06:27:12;20.50;;;8.93;;
20629;SDS011;17386;43.846;25.950;2022-08-23T06:29:38;15.70;;;8.15;;
20629;SDS011;17386;43.846;25.950;2022-08-23T06:32:04;15.15;;;7.45;;
20629;SDS011;17386;43.846;25.950;2022-08-23T06:34:31;18.27;;;7.10;;
20629;SDS011;17386;43.846;25.950;2022-08-23T06:37:00;17.17;;;7.88;;
20629;SDS011;17386;43.846;25.950;2022-08-23T06:39:29;14.02;;;8.25;;
20629;SDS011;17386;43.846;25.950;2022-08-23T06:42:00;15.00;;;6.82;;
20629;SDS011;17386;43.846;25.950;2022-08-23T06:44:27;16.55;;;7.38;;
20629;SDS011;17386;43.846;25.950;2022-08-23T06:46:53;15.65;;;6.70;;
20629;SDS011;17386;43.846;25.950;2022-08-23T06:49:22;12.80;;;6.80;;
20629;SDS011;17386;43.846;25.950;2022-08-23T06:51:50;18.42;;;7.90;;
20629;SDS011;17386;43.846;25.950;2022-08-23T06:54:20;14.80;;;6.40;;
20629;SDS011;17386;43.846;25.950;2022-08-23T06:56:47;15.10;;;6.15;;
20629;SDS011;17386;43.846;25.950;2022-08-23T06:59:14;15.38;;;6.63;;
20629;SDS011;17386;43.846;25.950;2022-08-23T07:01:54;12.70;;;6.40;;
20629;SDS011;17386;43.846;25.950;2022-08-23T07:04:22;15.13;;;6.90;;
20629;SDS011;17386;43.846;25.950;2022-08-23T07:06:50;10.50;;;5.60;;
20629;SDS011;17386;43.846;25.950;2022-08-23T07:09:15;20.85;;;7.75;;
20629;SDS011;17386;43.846;25.950;2022-08-23T07:11:42;13.60;;;7.15;;
20629;SDS011;17386;43.846;25.950;2022-08-23T07:14:09;14.95;;;7.35;;
20629;SDS011;17386;43.846;25.950;2022-08-23T07:16:41;16.30;;;8.85;;
20629;SDS011;17386;43.846;25.950;2022-08-23T07:19:21;15.65;;;7.65;;
20629;SDS011;17386;43.846;25.950;2022-08-23T07:21:48;14.52;;;8.55;;
20629;SDS011;17386;43.846;25.950;2022-08-23T07:24:15;24.00;;;9.10;;
20629;SDS011;17386;43.846;25.950;2022-08-23T07:26:42;14.23;;;7.20;;
20629;SDS011;17386;43.846;25.950;2022-08-23T07:29:09;18.73;;;7.88;;
20629;SDS011;17386;43.846;25.950;2022-08-23T07:31:38;30.08;;;11.55;;
20629;SDS011;17386;43.846;25.950;2022-08-23T07:34:15;26.90;;;11.55;;
20629;SDS011;17386;43.846;25.950;2022-08-23T07:36:41;14.88;;;7.07;;
20629;SDS011;17386;43.846;25.950;2022-08-23T07:39:08;22.77;;;8.43;;
20629;SDS011;17386;43.846;25.950;2022-08-23T07:41:34;12.80;;;8.35;;
20629;SDS011;17386;43.846;25.950;2022-08-23T07:44:02;25.45;;;14.95;;
20629;SDS011;17386;43.846;25.950;2022-08-23T07:46:28;15.63;;;7.38;;
20629;SDS011;17386;43.846;25.950;2022-08-23T07:48:55;15.60;;;7.68;;
20629;SDS011;17386;43.846;25.950;2022-08-23T07:51:25;28.95;;;14.57;;
20629;SDS011;17386;43.846;25.950;2022-08-23T07:53:52;24.30;;;12.10;;
20629;SDS011;17386;43.846;25.950;2022-08-23T07:56:18;15.57;;;7.68;;
20629;SDS011;17386;43.846;25.950;2022-08-23T07:58:45;14.95;;;9.95;;
20629;SDS011;17386;43.846;25.950;2022-08-23T08:01:11;15.07;;;7.97;;
20629;SDS011;17386;43.846;25.950;2022-08-23T08:03:39;17.45;;;8.35;;
20629;SDS011;17386;43.846;25.950;2022-08-23T08:06:06;18.33;;;8.30;;
20629;SDS011;17386;43.846;25.950;2022-08-23T08:08:33;14.90;;;8.10;;
20629;SDS011;17386;43.846;25.950;2022-08-23T08:10:58;15.85;;;7.40;;
20629;SDS011;17386;43.846;25.950;2022-08-23T08:13:23;14.15;;;7.38;;
20629;SDS011;17386;43.846;25.950;2022-08-23T08:15:49;16.05;;;7.80;;
20629;SDS011;17386;43.846;25.950;2022-08-23T08:18:14;21.27;;;6.88;;
20629;SDS011;17386;43.846;25.950;2022-08-23T08:20:42;18.27;;;7.15;;
20629;SDS011;17386;43.846;25.950;2022-08-23T08:23:08;15.80;;;7.07;;
20629;SDS011;17386;43.846;25.950;2022-08-23T08:25:33;16.17;;;7.18;;
20629;SDS011;17386;43.846;25.950;2022-08-23T08:27:59;15.00;;;6.70;;
20629;SDS011;17386;43.846;25.950;2022-08-23T08:30:25;22.05;;;7.80;;
20629;SDS011;17386;43.846;25.950;2022-08-23T08:32:50;21.35;;;10.63;;
20629;SDS011;17386;43.846;25.950;2022-08-23T08:35:16;13.82;;;8.40;;
20629;SDS011;17386;43.846;25.950;2022-08-23T08:37:41;17.63;;;7.20;;
20629;SDS011;17386;43.846;25.950;2022-08-23T08:40:07;12.07;;;7.22;;
20629;SDS011;17386;43.846;25.950;2022-08-23T08:45:24;16.35;;;6.45;;
20629;SDS011;17386;43.846;25.950;2022-08-23T08:47:53;24.00;;;19.52;;
20629;SDS011;17386;43.846;25.950;2022-08-23T08:50:34;14.25;;;9.15;;
20629;SDS011;17386;43.846;25.950;2022-08-23T08:53:03;16.90;;;6.90;;
20629;SDS011;17386;43.846;25.950;2022-08-23T08:55:55;15.10;;;6.70;;
20629;SDS011;17386;43.846;25.950;2022-08-23T08:58:36;13.48;;;6.63;;
20629;SDS011;17386;43.846;25.950;2022-08-23T09:01:07;18.42;;;7.50;;
20629;SDS011;17386;43.846;25.950;2022-08-23T09:03:33;19.13;;;7.30;;
20629;SDS011;17386;43.846;25.950;2022-08-23T09:17:11;15.02;;;6.18;;
20629;SDS011;17386;43.846;25.950;2022-08-23T09:20:00;15.27;;;5.55;;
20629;SDS011;17386;43.846;25.950;2022-08-23T09:22:33;13.27;;;6.03;;
20629;SDS011;17386;43.846;25.950;2022-08-23T09:25:03;16.08;;;6.00;;
20629;SDS011;17386;43.846;25.950;2022-08-23T09:27:31;15.23;;;7.60;;
20629;SDS011;17386;43.846;25.950;2022-08-23T09:29:59;11.95;;;6.05;;
20629;SDS011;17386;43.846;25.950;2022-08-23T09:32:29;13.45;;;6.63;;
20629;SDS011;17386;43.846;25.950;2022-08-23T09:35:08;12.73;;;5.97;;
20629;SDS011;17386;43.846;25.950;2022-08-23T09:41:03;26.85;;;10.77;;
20629;SDS011;17386;43.846;25.950;2022-08-23T09:45:41;13.85;;;6.45;;
20629;SDS011;17386;43.846;25.950;2022-08-23T09:54:11;11.27;;;6.20;;
20629;SDS011;17386;43.846;25.950;2022-08-23T09:56:52;19.88;;;9.20;;
20629;SDS011;17386;43.846;25.950;2022-08-23T10:01:49;13.15;;;6.20;;
20629;SDS011;17386;43.846;25.950;2022-08-23T10:04:21;16.25;;;5.90;;
20629;SDS011;17386;43.846;25.950;2022-08-23T10:06:53;11.30;;;6.18;;
20629;SDS011;17386;43.846;25.950;2022-08-23T10:11:47;11.40;;;5.75;;
20629;SDS011;17386;43.846;25.950;2022-08-23T10:14:14;11.82;;;5.70;;
20629;SDS011;17386;43.846;25.950;2022-08-23T10:22:15;9.95;;;5.22;;
20629;SDS011;17386;43.846;25.950;2022-08-23T10:27:54;14.13;;;5.93;;
20629;SDS011;17386;43.846;25.950;2022-08-23T10:30:17;16.85;;;5.93;;
20629;SDS011;17386;43.846;25.950;2022-08-23T10:32:58;19.88;;;6.75;;
20629;SDS011;17386;43.846;25.950;2022-08-23T10:35:36;15.60;;;5.43;;
20629;SDS011;17386;43.846;25.950;2022-08-23T10:40:34;12.55;;;5.18;;
20629;SDS011;17386;43.846;25.950;2022-08-23T10:45:50;14.55;;;5.57;;
20629;SDS011;17386;43.846;25.950;2022-08-23T10:50:54;13.93;;;6.05;;
20629;SDS011;17386;43.846;25.950;2022-08-23T10:53:20;15.77;;;6.57;;
20629;SDS011;17386;43.846;25.950;2022-08-23T10:55:56;15.68;;;6.57;;
20629;SDS011;17386;43.846;25.950;2022-08-23T10:58:47;12.70;;;6.20;;
20629;SDS011;17386;43.846;25.950;2022-08-23T11:04:08;9.57;;;5.82;;
20629;SDS011;17386;43.846;25.950;2022-08-23T11:06:58;14.57;;;7.28;;
20629;SDS011;17386;43.846;25.950;2022-08-23T11:25:58;19.30;;;6.22;;
20629;SDS011;17386;43.846;25.950;2022-08-23T11:30:56;13.52;;;11.35;;
20629;SDS011;17386;43.846;25.950;2022-08-23T11:33:42;14.02;;;6.30;;
20629;SDS011;17386;43.846;25.950;2022-08-23T11:36:16;15.88;;;6.78;;
20629;SDS011;17386;43.846;25.950;2022-08-23T11:43:42;14.38;;;5.45;;
20629;SDS011;17386;43.846;25.950;2022-08-23T11:46:12;13.18;;;5.63;;
20629;SDS011;17386;43.846;25.950;2022-08-23T11:48:48;12.13;;;5.90;;
20629;SDS011;17386;43.846;25.950;2022-08-23T12:02:51;13.15;;;5.03;;
20629;SDS011;17386;43.846;25.950;2022-08-23T12:18:30;11.35;;;5.15;;
20629;SDS011;17386;43.846;25.950;2022-08-23T12:37:39;16.02;;;6.15;;
20629;SDS011;17386;43.846;25.950;2022-08-23T12:43:21;16.85;;;6.65;;
20629;SDS011;17386;43.846;25.950;2022-08-23T12:45:57;13.43;;;5.53;;
20629;SDS011;17386;43.846;25.950;2022-08-23T12:48:26;11.93;;;5.65;;
20629;SDS011;17386;43.846;25.950;2022-08-23T12:51:07;11.20;;;6.03;;
20629;SDS011;17386;43.846;25.950;2022-08-23T12:56:04;12.13;;;5.35;;
20629;SDS011;17386;43.846;25.950;2022-08-23T12:58:33;20.70;;;5.80;;
20629;SDS011;17386;43.846;25.950;2022-08-23T13:01:16;15.63;;;5.35;;
20629;SDS011;17386;43.846;25.950;2022-08-23T13:03:45;11.63;;;5.65;;
20629;SDS011;17386;43.846;25.950;2022-08-23T13:06:19;13.27;;;5.50;;
20629;SDS011;17386;43.846;25.950;2022-08-23T13:08:59;13.68;;;5.70;;
20629;SDS011;17386;43.846;25.950;2022-08-23T13:11:32;14.57;;;6.25;;
20629;SDS011;17386;43.846;25.950;2022-08-23T13:13:58;17.73;;;6.20;;
20629;SDS011;17386;43.846;25.950;2022-08-23T13:24:36;17.95;;;7.13;;
20629;SDS011;17386;43.846;25.950;2022-08-23T13:29:48;15.75;;;6.30;;
20629;SDS011;17386;43.846;25.950;2022-08-23T13:32:23;15.77;;;6.10;;
20629;SDS011;17386;43.846;25.950;2022-08-23T13:37:48;17.45;;;7.70;;
20629;SDS011;17386;43.846;25.950;2022-08-23T13:40:21;14.60;;;5.95;;
20629;SDS011;17386;43.846;25.950;2022-08-23T13:42:51;14.07;;;5.45;;
20629;SDS011;17386;43.846;25.950;2022-08-23T13:45:26;15.75;;;6.75;;
20629;SDS011;17386;43.846;25.950;2022-08-23T13:47:54;15.93;;;6.68;;
20629;SDS011;17386;43.846;25.950;2022-08-23T13:50:28;12.90;;;6.30;;
20629;SDS011;17386;43.846;25.950;2022-08-23T13:52:56;13.68;;;6.55;;
20629;SDS011;17386;43.846;25.950;2022-08-23T13:55:24;15.00;;;7.60;;
20629;SDS011;17386;43.846;25.950;2022-08-23T13:57:52;13.18;;;6.60;;
20629;SDS011;17386;43.846;25.950;2022-08-23T14:00:19;43.67;;;18.05;;
20629;SDS011;17386;43.846;25.950;2022-08-23T14:02:48;22.42;;;9.27;;
20629;SDS011;17386;43.846;25.950;2022-08-23T14:05:17;21.45;;;7.43;;
20629;SDS011;17386;43.846;25.950;2022-08-23T14:07:47;16.25;;;7.30;;
20629;SDS011;17386;43.846;25.950;2022-08-23T14:10:21;13.35;;;6.45;;
20629;SDS011;17386;43.846;25.950;2022-08-23T14:12:49;14.50;;;6.60;;
20629;SDS011;17386;43.846;25.950;2022-08-23T14:15:19;13.95;;;7.00;;
20629;SDS011;17386;43.846;25.950;2022-08-23T14:17:50;33.05;;;7.68;;
20629;SDS011;17386;43.846;25.950;2022-08-23T14:20:18;17.90;;;7.70;;
20629;SDS011;17386;43.846;25.950;2022-08-23T14:22:45;17.95;;;6.43;;
20629;SDS011;17386;43.846;25.950;2022-08-23T14:25:11;17.50;;;7.60;;
20629;SDS011;17386;43.846;25.950;2022-08-23T14:27:38;12.23;;;6.50;;
20629;SDS011;17386;43.846;25.950;2022-08-23T14:30:07;16.38;;;8.13;;
20629;SDS011;17386;43.846;25.950;2022-08-23T14:32:38;15.43;;;7.38;;
20629;SDS011;17386;43.846;25.950;2022-08-23T14:35:05;13.23;;;7.82;;
20629;SDS011;17386;43.846;25.950;2022-08-23T14:37:31;11.40;;;6.55;;
20629;SDS011;17386;43.846;25.950;2022-08-23T14:39:57;11.00;;;5.25;;
20629;SDS011;17386;43.846;25.950;2022-08-23T14:42:22;12.63;;;6.18;;
20629;SDS011;17386;43.846;25.950;2022-08-23T14:44:48;10.77;;;6.13;;
20629;SDS011;17386;43.846;25.950;2022-08-23T14:47:13;11.27;;;6.53;;
20629;SDS011;17386;43.846;25.950;2022-08-23T14:49:39;13.85;;;7.30;;
20629;SDS011;17386;43.846;25.950;2022-08-23T14:52:05;16.02;;;6.50;;
20629;SDS011;17386;43.846;25.950;2022-08-23T14:54:31;13.48;;;7.05;;
20629;SDS011;17386;43.846;25.950;2022-08-23T14:56:57;16.17;;;8.30;;
20629;SDS011;17386;43.846;25.950;2022-08-23T14:59:24;12.80;;;7.28;;
20629;SDS011;17386;43.846;25.950;2022-08-23T15:01:51;15.00;;;8.43;;
20629;SDS011;17386;43.846;25.950;2022-08-23T15:04:18;10.35;;;6.28;;
20629;SDS011;17386;43.846;25.950;2022-08-23T15:06:45;12.93;;;6.18;;
20629;SDS011;17386;43.846;25.950;2022-08-23T15:09:11;13.90;;;6.88;;
20629;SDS011;17386;43.846;25.950;2022-08-23T15:11:37;11.13;;;5.72;;
20629;SDS011;17386;43.846;25.950;2022-08-23T15:14:02;14.90;;;7.90;;
20629;SDS011;17386;43.846;25.950;2022-08-23T15:16:28;15.80;;;7.45;;
20629;SDS011;17386;43.846;25.950;2022-08-23T15:18:53;11.93;;;6.30;;
20629;SDS011;17386;43.846;25.950;2022-08-23T15:21:20;11.82;;;7.25;;
20629;SDS011;17386;43.846;25.950;2022-08-23T15:23:47;15.07;;;8.30;;
20629;SDS011;17386;43.846;25.950;2022-08-23T15:26:14;19.13;;;9.48;;
20629;SDS011;17386;43.846;25.950;2022-08-23T15:28:44;19.67;;;10.05;;
20629;SDS011;17386;43.846;25.950;2022-08-23T15:31:15;26.90;;;12.30;;
20629;SDS011;17386;43.846;25.950;2022-08-23T15:33:43;18.17;;;10.73;;
20629;SDS011;17386;43.846;25.950;2022-08-23T15:36:09;21.92;;;12.05;;
20629;SDS011;17386;43.846;25.950;2022-08-23T15:38:36;30.25;;;12.32;;
20629;SDS011;17386;43.846;25.950;2022-08-23T15:41:03;22.15;;;12.65;;
20629;SDS011;17386;43.846;25.950;2022-08-23T15:43:29;22.30;;;10.82;;
20629;SDS011;17386;43.846;25.950;2022-08-23T15:45:57;24.10;;;11.25;;
20629;SDS011;17386;43.846;25.950;2022-08-23T15:48:27;21.10;;;11.80;;
20629;SDS011;17386;43.846;25.950;2022-08-23T15:50:56;22.65;;;12.77;;
20629;SDS011;17386;43.846;25.950;2022-08-23T15:53:22;22.83;;;13.68;;
20629;SDS011;17386;43.846;25.950;2022-08-23T15:55:48;24.48;;;12.90;;
20629;SDS011;17386;43.846;25.950;2022-08-23T15:58:17;22.92;;;11.85;;
20629;SDS011;17386;43.846;25.950;2022-08-23T16:00:45;22.00;;;12.15;;
20629;SDS011;17386;43.846;25.950;2022-08-23T16:03:11;22.10;;;12.60;;
20629;SDS011;17386;43.846;25.950;2022-08-23T16:05:37;21.70;;;12.05;;
20629;SDS011;17386;43.846;25.950;2022-08-23T16:08:05;23.30;;;13.35;;
20629;SDS011;17386;43.846;25.950;2022-08-23T16:10:33;26.33;;;15.55;;
20629;SDS011;17386;43.846;25.950;2022-08-23T16:12:58;32.10;;;17.13;;
20629;SDS011;17386;43.846;25.950;2022-08-23T16:15:24;22.67;;;12.35;;
20629;SDS011;17386;43.846;25.950;2022-08-23T16:17:49;22.75;;;11.85;;
20629;SDS011;17386;43.846;25.950;2022-08-23T16:20:15;21.67;;;12.13;;
20629;SDS011;17386;43.846;25.950;2022-08-23T16:22:41;17.50;;;10.45;;
20629;SDS011;17386;43.846;25.950;2022-08-23T16:25:08;21.15;;;11.32;;
20629;SDS011;17386;43.846;25.950;2022-08-23T16:27:35;18.95;;;10.98;;
20629;SDS011;17386;43.846;25.950;2022-08-23T16:30:03;20.92;;;12.13;;
20629;SDS011;17386;43.846;25.950;2022-08-23T16:32:30;26.27;;;12.07;;
20629;SDS011;17386;43.846;25.950;2022-08-23T16:34:56;23.23;;;12.13;;
20629;SDS011;17386;43.846;25.950;2022-08-23T16:37:21;25.90;;;13.60;;
20629;SDS011;17386;43.846;25.950;2022-08-23T16:39:47;24.38;;;13.35;;
20629;SDS011;17386;43.846;25.950;2022-08-23T16:42:12;24.77;;;13.88;;
20629;SDS011;17386;43.846;25.950;2022-08-23T16:44:38;22.83;;;13.38;;
20629;SDS011;17386;43.846;25.950;2022-08-23T16:47:04;24.60;;;13.18;;
20629;SDS011;17386;43.846;25.950;2022-08-23T16:49:34;21.70;;;13.57;;
20629;SDS011;17386;43.846;25.950;2022-08-23T16:52:01;24.27;;;12.73;;